»·PEaware :: ASA15 KSJC-KSAN

ASA15 :: KSJC-KSAN

FLIGHT INFORMATION

Flight Status: Arrived
Operator:
Alaska Airlines
More flights by this operator :: More flights under this callsign
Pilot: Steve F. (26981)
Aircraft: BOEING 737-800
(B738)
More flights by this aircraft type
Origin: KSJC Mineta San Jose Intl
United States
Destination: KSAN San Diego Intl-Lindbergh
United States
More flights between these airports :: More routes between these airports
Route: +TECKY3 EBAYE AVE FIM J1 LAX COMIX2
File this flight plan on PilotEdge
Remarks:
Altitude:
(Current/Filed)
39,000ft
Speed:
(Current/Filed)
430kts
Departed: 26-Jul-20 07:17 PM
Arrived: 26-Jul-20 08:21 PM
Distance/Time
Traveled:
362nm/1:03
Distance/Time
To Go:
Arrived

Flight Plot

Page will automatically refresh every two minutes.


Map Options




Map Legend


Flown Route
Filed Route
Departure Airport
Arrival Airport
Navaid (VOR, NDB)
Fix

Horizontal Profiles

Position Reports

Time Latitude Longitude Heading Altitude Ground
Speed
26-Jul-20 18:56 37.371081 -121.931533 57 70ft 0kts
26-Jul-20 18:57 37.371081 -121.931533 57 70ft 0kts
26-Jul-20 18:58 37.371081 -121.931533 57 70ft 0kts
26-Jul-20 18:59 37.371081 -121.931533 57 70ft 0kts
26-Jul-20 19:00 37.371081 -121.931533 57 70ft 0kts
26-Jul-20 19:01 37.371081 -121.931533 57 70ft 0kts
26-Jul-20 19:02 37.371081 -121.931533 57 70ft 0kts
26-Jul-20 19:03 37.371081 -121.931533 57 70ft 0kts
26-Jul-20 19:04 37.371081 -121.931533 57 70ft 0kts
26-Jul-20 19:05 37.371081 -121.931533 57 70ft 0kts
26-Jul-20 19:06 37.371081 -121.931533 57 70ft 0kts
26-Jul-20 19:07 37.371068 -121.931558 57 70ft 1kts
26-Jul-20 19:08 37.371018 -121.932453 116 70ft 2kts
26-Jul-20 19:09 37.371111 -121.932645 126 70ft 0kts
26-Jul-20 19:10 37.371110 -121.932643 126 70ft 0kts
26-Jul-20 19:11 37.368577 -121.930204 138 70ft 26kts
26-Jul-20 19:12 37.362802 -121.923812 138 70ft 24kts
26-Jul-20 19:13 37.357854 -121.918321 138 70ft 24kts
26-Jul-20 19:14 37.353613 -121.913897 209 70ft 8kts
26-Jul-20 19:15 37.353107 -121.916231 320 70ft 28kts
26-Jul-20 19:16 37.379353 -121.944890 319 1351ft 170kts
26-Jul-20 19:17 37.425268 -121.970785 16 3715ft 226kts
26-Jul-20 19:18 37.442312 -121.896384 129 4995ft 256kts
26-Jul-20 19:19 37.384907 -121.836505 147 5032ft 279kts
26-Jul-20 19:20 37.321121 -121.780344 142 5051ft 282kts
26-Jul-20 19:21 37.262542 -121.713744 138 8007ft 287kts
26-Jul-20 19:22 37.202834 -121.645356 138 10988ft 295kts
26-Jul-20 19:23 37.135011 -121.568635 137 12431ft 356kts
26-Jul-20 19:24 37.059325 -121.483507 138 14972ft 374kts
26-Jul-20 19:25 36.978492 -121.397411 138 17486ft 389kts
26-Jul-20 19:26 36.894247 -121.308004 139 19585ft 404kts
26-Jul-20 19:27 36.807148 -121.215179 139 21332ft 417kts
26-Jul-20 19:28 36.717573 -121.120348 139 22832ft 428kts
26-Jul-20 19:29 36.625320 -121.023177 139 24196ft 438kts
26-Jul-20 19:30 36.530672 -120.926423 140 25433ft 446kts
26-Jul-20 19:31 36.433632 -120.828134 141 26614ft 452kts
26-Jul-20 19:32 36.335100 -120.728585 141 27686ft 458kts
26-Jul-20 19:33 36.235723 -120.628010 142 28656ft 462kts
26-Jul-20 19:34 36.135504 -120.527193 142 29547ft 465kts
26-Jul-20 19:35 36.035507 -120.426727 143 30771ft 460kts
26-Jul-20 19:36 35.936453 -120.327953 143 31896ft 456kts
26-Jul-20 19:37 35.840528 -120.226307 137 32937ft 456kts
26-Jul-20 19:38 35.752996 -120.113195 137 33934ft 454kts
26-Jul-20 19:39 35.665088 -120.001671 139 34877ft 452kts
26-Jul-20 19:40 35.566435 -119.908834 148 35775ft 445kts
26-Jul-20 19:41 35.464906 -119.821476 149 36588ft 445kts
26-Jul-20 19:42 35.363750 -119.734613 149 37387ft 444kts
26-Jul-20 19:43 35.262677 -119.647556 149 38138ft 444kts
26-Jul-20 19:44 35.161260 -119.560679 149 38818ft 444kts
26-Jul-20 19:45 35.060064 -119.474315 149 38973ft 444kts
26-Jul-20 19:46 34.958418 -119.387851 150 38995ft 444kts
26-Jul-20 19:47 34.856813 -119.301689 150 39022ft 445kts
26-Jul-20 19:48 34.755044 -119.215648 150 39050ft 445kts
26-Jul-20 19:49 34.653304 -119.129897 150 39065ft 445kts
26-Jul-20 19:50 34.551917 -119.044483 150 39061ft 444kts
26-Jul-20 19:51 34.449753 -118.958971 150 39036ft 445kts
26-Jul-20 19:52 34.348481 -118.873149 146 39010ft 448kts
26-Jul-20 19:53 34.254205 -118.772873 143 38990ft 450kts
26-Jul-20 19:54 34.160470 -118.672646 143 38964ft 450kts
26-Jul-20 19:55 34.065850 -118.572012 144 36704ft 453kts
26-Jul-20 19:56 33.971263 -118.472191 144 33903ft 450kts
26-Jul-20 19:57 33.881882 -118.366671 137 31100ft 455kts
26-Jul-20 19:58 33.795107 -118.253404 138 28299ft 464kts
26-Jul-20 19:59 33.707442 -118.138328 136 25506ft 467kts
26-Jul-20 20:00 33.620759 -118.024860 136 22727ft 451kts
26-Jul-20 20:01 33.537403 -117.916797 137 20321ft 432kts
26-Jul-20 20:02 33.452727 -117.819675 138 17987ft 409kts
26-Jul-20 20:03 33.370450 -117.730442 139 16014ft 383kts
26-Jul-20 20:04 33.296003 -117.651229 139 15426ft 339kts
26-Jul-20 20:05 33.225202 -117.576111 139 14306ft 337kts
26-Jul-20 20:06 33.155533 -117.502836 138 12638ft 329kts
26-Jul-20 20:07 33.082737 -117.437965 145 10960ft 324kts
26-Jul-20 20:08 33.013095 -117.379906 144 10501ft 285kts
26-Jul-20 20:09 32.951338 -117.328190 145 9781ft 265kts
26-Jul-20 20:10 32.891180 -117.277958 145 8590ft 263kts
26-Jul-20 20:11 32.831508 -117.228410 146 7418ft 260kts
26-Jul-20 20:12 32.798507 -117.154206 105 6413ft 252kts
26-Jul-20 20:13 32.781755 -117.077468 106 5987ft 237kts
26-Jul-20 20:14 32.764372 -117.004817 107 5588ft 219kts
26-Jul-20 20:15 32.722116 -116.969516 187 4432ft 206kts
26-Jul-20 20:16 32.687914 -117.009833 271 3194ft 183kts
26-Jul-20 20:17 32.702594 -117.065196 288 2238ft 172kts
26-Jul-20 20:18 32.715682 -117.116901 286 1357ft 151kts
26-Jul-20 20:19 32.727378 -117.164304 286 399ft 147kts
26-Jul-20 20:20 32.735469 -117.197535 285 23ft 16kts
26-Jul-20 20:21 32.734893 -117.198394 194 23ft 0kts
26-Jul-20 20:22 32.733693 -117.198932 143 23ft 1kts
26-Jul-20 20:24 32.733689 -117.198929 143 23ft 0kts

Navigation Log

Ident Type
Flight plan parsing failed, navigation log unavailable